createdAt,value
2022-09-24T00:01:41.002Z,8.23
2022-09-24T00:04:15.469Z,8.20
2022-09-24T00:06:49.726Z,8.29
2022-09-24T00:09:22.261Z,8.29
2022-09-24T00:11:51.573Z,8.28
2022-09-24T00:14:18.911Z,8.24
2022-09-24T00:16:46.231Z,8.28
2022-09-24T00:19:15.342Z,8.07
2022-09-24T00:21:44.874Z,8.03
2022-09-24T00:24:37.085Z,8.17
2022-09-24T00:27:06.288Z,8.30
2022-09-24T00:29:34.359Z,8.29
2022-09-24T00:32:02.557Z,8.14
2022-09-24T00:34:30.417Z,8.18
2022-09-24T00:36:57.639Z,8.24
2022-09-24T00:39:27.643Z,8.15
2022-09-24T00:41:54.872Z,8.34
2022-09-24T00:44:47.399Z,8.34
2022-09-24T00:47:18.360Z,8.04
2022-09-24T00:49:49.191Z,8.33
2022-09-24T00:52:18.285Z,8.29
2022-09-24T00:54:45.754Z,8.33
2022-09-24T00:57:13.939Z,8.25
2022-09-24T00:59:42.674Z,8.23
2022-09-24T01:02:10.371Z,8.35
2022-09-24T01:04:37.526Z,8.29
2022-09-24T01:07:05.467Z,8.31
2022-09-24T01:09:32.784Z,8.08
2022-09-24T01:12:22.226Z,8.26
2022-09-24T01:14:52.212Z,8.34
2022-09-24T01:17:36.759Z,8.15
2022-09-24T01:20:14.293Z,8.11
2022-09-24T01:23:11.960Z,8.32
2022-09-24T01:25:53.805Z,8.31
2022-09-24T01:28:37.867Z,8.30
2022-09-24T01:31:16.211Z,7.94
2022-09-24T01:33:48.496Z,8.15
2022-09-24T01:36:17.595Z,8.30
2022-09-24T01:38:47.764Z,8.17
2022-09-24T01:41:17.521Z,8.23
2022-09-24T01:43:46.299Z,8.14
2022-09-24T01:46:14.712Z,8.10
2022-09-24T01:48:42.579Z,8.25
2022-09-24T01:51:26.772Z,8.31
2022-09-24T01:54:13.745Z,8.24
2022-09-24T01:56:47.341Z,8.30
2022-09-24T01:59:28.289Z,8.28
2022-09-24T02:02:07.859Z,7.95
2022-09-24T02:04:42.042Z,7.99
2022-09-24T02:07:23.524Z,8.31
2022-09-24T02:09:51.112Z,8.19
2022-09-24T02:12:34.488Z,8.28
2022-09-24T02:15:17.593Z,8.27
2022-09-24T02:17:48.590Z,8.28
2022-09-24T02:20:20.335Z,8.27
2022-09-24T02:22:51.192Z,8.07
2022-09-24T02:25:25.053Z,8.24
2022-09-24T02:27:52.170Z,8.31
2022-09-24T02:30:19.271Z,8.18
2022-09-24T02:32:48.350Z,8.26
2022-09-24T02:35:16.536Z,8.19
2022-09-24T02:37:44.754Z,8.27
2022-09-24T02:40:14.888Z,8.22
2022-09-24T02:42:43.607Z,8.19
2022-09-24T02:45:12.004Z,8.25
2022-09-24T02:47:39.245Z,8.20
2022-09-24T02:50:07.299Z,8.26
2022-09-24T02:52:35.027Z,8.22
2022-09-24T02:55:02.996Z,8.26
2022-09-24T02:57:30.777Z,8.10
2022-09-24T02:59:57.845Z,7.92
2022-09-24T03:02:25.021Z,8.27
2022-09-24T03:04:52.247Z,7.99
2022-09-24T03:07:21.934Z,8.17
2022-09-24T03:09:48.900Z,8.24
2022-09-24T03:12:15.977Z,8.23
2022-09-24T03:14:42.979Z,8.17
2022-09-24T03:17:09.953Z,8.17
2022-09-24T03:19:37.597Z,7.91
2022-09-24T03:22:05.085Z,7.86
2022-09-24T03:24:32.564Z,7.79
2022-09-24T03:26:59.916Z,8.02
2022-09-24T03:29:46.373Z,8.00
2022-09-24T03:32:14.023Z,7.88
2022-09-24T03:34:41.259Z,7.68
2022-09-24T03:37:08.839Z,7.88
2022-09-24T03:39:36.431Z,7.66
2022-09-24T03:42:03.729Z,7.78
2022-09-24T03:44:30.887Z,7.76
2022-09-24T03:46:58.217Z,7.56
2022-09-24T03:49:26.082Z,7.76
2022-09-24T03:51:53.541Z,7.76
2022-09-24T03:54:20.555Z,7.77
2022-09-24T03:56:48.373Z,7.75
2022-09-24T03:59:15.583Z,7.48
2022-09-24T04:01:42.663Z,7.73
2022-09-24T04:04:10.461Z,7.71
2022-09-24T04:06:38.515Z,7.57
2022-09-24T04:09:07.114Z,7.67
2022-09-24T04:11:35.458Z,7.66
2022-09-24T04:14:02.798Z,7.57
2022-09-24T04:16:30.873Z,7.58
2022-09-24T04:18:58.262Z,7.43
2022-09-24T04:21:25.335Z,7.64
2022-09-24T04:23:52.852Z,7.64
2022-09-24T04:26:21.225Z,7.66
2022-09-24T04:28:49.884Z,7.68
2022-09-24T04:31:16.978Z,7.67
2022-09-24T04:33:44.540Z,7.72
2022-09-24T04:36:11.765Z,7.57
2022-09-24T04:38:38.728Z,7.68
2022-09-24T04:41:07.410Z,7.59
2022-09-24T04:43:37.079Z,7.80
2022-09-24T04:46:10.157Z,7.80
2022-09-24T04:48:38.398Z,7.65
2022-09-24T04:51:09.017Z,7.52
2022-09-24T04:53:37.679Z,7.74
2022-09-24T04:56:05.671Z,7.84
2022-09-24T04:58:33.216Z,7.76
2022-09-24T05:01:03.941Z,7.83
2022-09-24T05:03:31.290Z,7.91
2022-09-24T05:05:58.279Z,7.78
2022-09-24T05:08:25.321Z,7.77
2022-09-24T05:10:54.394Z,7.76
2022-09-24T05:13:22.499Z,7.74
2022-09-24T05:15:49.677Z,7.71
2022-09-24T05:18:17.985Z,7.69
2022-09-24T05:20:45.861Z,7.65
2022-09-24T05:23:13.010Z,7.67
2022-09-24T05:26:00.039Z,7.54
2022-09-24T05:28:27.284Z,7.81
2022-09-24T05:31:03.365Z,7.66
2022-09-24T05:33:30.703Z,7.62
2022-09-24T05:35:58.428Z,7.72
2022-09-24T05:38:25.469Z,7.73
2022-09-24T05:40:52.904Z,7.82
2022-09-24T05:43:20.615Z,7.73
2022-09-24T05:45:51.621Z,7.74
2022-09-24T05:48:18.817Z,7.53
2022-09-24T05:50:45.886Z,7.76
2022-09-24T05:53:13.378Z,7.77
2022-09-24T05:55:40.711Z,7.58
2022-09-24T05:58:10.506Z,7.74
2022-09-24T06:00:37.811Z,7.68
2022-09-24T06:03:08.154Z,7.68
2022-09-24T06:05:36.096Z,7.69
2022-09-24T06:08:08.790Z,7.68
2022-09-24T06:10:36.726Z,7.45
2022-09-24T06:13:04.260Z,7.64
2022-09-24T06:15:31.631Z,7.09
2022-09-24T06:17:58.799Z,7.62
2022-09-24T06:20:40.872Z,7.44
2022-09-24T06:23:07.991Z,7.56
2022-09-24T06:25:35.379Z,7.29
2022-09-24T06:28:04.731Z,7.43
2022-09-24T06:30:38.495Z,7.65
2022-09-24T06:33:09.734Z,7.47
2022-09-24T06:35:38.272Z,7.54
2022-09-24T06:38:07.343Z,7.43
2022-09-24T06:40:37.331Z,7.37
2022-09-24T06:43:11.193Z,7.36
2022-09-24T06:45:38.932Z,7.26
2022-09-24T06:48:06.565Z,7.31
2022-09-24T06:50:35.566Z,7.32
2022-09-24T06:53:06.571Z,7.48
2022-09-24T06:55:35.182Z,7.31
2022-09-24T06:58:05.485Z,7.52
2022-09-24T07:00:33.071Z,7.48
2022-09-24T07:03:00.180Z,7.62
2022-09-24T07:05:27.263Z,7.68
2022-09-24T07:07:54.853Z,7.73
2022-09-24T07:10:24.506Z,7.52
2022-09-24T07:12:52.111Z,7.49
2022-09-24T07:15:20.456Z,7.77
2022-09-24T07:17:47.577Z,7.75
2022-09-24T07:20:14.733Z,7.78
2022-09-24T07:22:43.163Z,7.77
2022-09-24T07:25:12.035Z,7.73
2022-09-24T07:27:39.595Z,7.78
2022-09-24T07:30:08.906Z,7.73
2022-09-24T07:32:36.461Z,7.77
2022-09-24T07:35:03.621Z,7.81
2022-09-24T07:37:33.389Z,7.66
2022-09-24T07:40:01.066Z,7.70
2022-09-24T07:42:30.588Z,7.76
2022-09-24T07:44:57.821Z,7.53
2022-09-24T07:47:24.959Z,7.77
2022-09-24T07:49:52.105Z,7.60
2022-09-24T07:52:20.257Z,7.77
2022-09-24T07:54:47.805Z,7.79
2022-09-24T07:57:14.997Z,7.80
2022-09-24T07:59:45.416Z,7.76
2022-09-24T08:02:17.763Z,7.75
2022-09-24T08:04:45.655Z,7.64
2022-09-24T08:07:13.452Z,7.52
2022-09-24T08:09:40.749Z,7.38
2022-09-24T08:12:08.450Z,7.53
2022-09-24T08:14:35.849Z,7.87
2022-09-24T08:17:02.970Z,7.56
2022-09-24T08:19:31.476Z,7.87
2022-09-24T08:21:58.999Z,7.90
2022-09-24T08:24:26.312Z,7.82
2022-09-24T08:26:53.388Z,7.94
2022-09-24T08:29:20.431Z,7.95
2022-09-24T08:31:47.388Z,7.83
2022-09-24T08:34:15.021Z,7.73
2022-09-24T08:36:43.314Z,7.96
2022-09-24T08:39:10.704Z,7.75
2022-09-24T08:41:56.546Z,7.92
2022-09-24T08:44:50.966Z,7.79
2022-09-24T08:47:36.580Z,7.74
2022-09-24T08:50:10.044Z,7.02
2022-09-24T08:52:43.422Z,7.80
2022-09-24T08:55:31.750Z,7.79
2022-09-24T08:58:11.373Z,7.78
2022-09-24T09:00:53.896Z,7.54
2022-09-24T09:03:47.756Z,7.69
2022-09-24T09:06:42.279Z,7.83
2022-09-24T09:09:23.510Z,7.87
2022-09-24T09:11:58.256Z,7.86
2022-09-24T09:14:45.555Z,7.88
2022-09-24T09:17:18.631Z,7.87
2022-09-24T09:19:54.123Z,7.87
2022-09-24T09:22:27.247Z,7.71
2022-09-24T09:25:02.936Z,7.89
2022-09-24T09:27:31.592Z,7.90
2022-09-24T09:30:03.443Z,7.79
2022-09-24T09:32:57.425Z,7.87
2022-09-24T09:35:31.153Z,7.88
2022-09-24T09:38:17.810Z,7.90
2022-09-24T09:40:55.788Z,7.90
2022-09-24T09:43:22.908Z,7.91
2022-09-24T09:46:08.825Z,7.90
2022-09-24T09:49:01.942Z,7.80
2022-09-24T09:51:35.038Z,7.82
2022-09-24T09:54:03.593Z,7.90
2022-09-24T09:56:36.765Z,7.81
2022-09-24T09:59:17.866Z,7.61
2022-09-24T10:01:49.511Z,7.83
2022-09-24T10:04:39.830Z,7.77
2022-09-24T10:07:16.219Z,7.84
2022-09-24T10:09:45.613Z,7.80
2022-09-24T10:12:24.430Z,7.74
2022-09-24T10:15:19.576Z,7.69
2022-09-24T10:17:50.939Z,7.81
2022-09-24T10:20:27.904Z,7.82
2022-09-24T10:22:58.923Z,7.82
2022-09-24T10:25:29.424Z,7.87
2022-09-24T10:28:21.355Z,7.71
2022-09-24T10:30:53.607Z,7.79
2022-09-24T10:33:21.346Z,7.81
2022-09-24T10:35:48.734Z,7.89
2022-09-24T10:38:19.369Z,7.88
2022-09-24T10:40:47.227Z,7.75
2022-09-24T10:43:20.498Z,7.91
2022-09-24T10:46:03.697Z,7.95
2022-09-24T10:48:45.762Z,7.93
2022-09-24T10:51:28.926Z,7.95
2022-09-24T10:54:34.934Z,7.94
2022-09-24T10:57:20.146Z,7.74
2022-09-24T10:59:57.336Z,7.91
2022-09-24T11:02:39.891Z,7.95
2022-09-24T11:05:19.569Z,7.76
2022-09-24T11:08:04.508Z,7.97
2022-09-24T11:10:56.911Z,7.99
2022-09-24T11:13:34.341Z,8.01
2022-09-24T11:16:39.248Z,8.00
2022-09-24T11:19:27.951Z,7.96
2022-09-24T11:22:10.272Z,7.97
2022-09-24T11:24:40.164Z,7.96
2022-09-24T11:27:32.226Z,7.96
2022-09-24T11:30:21.879Z,8.00
2022-09-24T11:33:26.670Z,7.97
2022-09-24T11:36:27.576Z,7.89
2022-09-24T11:39:37.152Z,7.89
2022-09-24T11:42:18.458Z,7.87
2022-09-24T11:45:11.354Z,7.87
2022-09-24T11:48:03.901Z,7.92
2022-09-24T11:50:36.931Z,7.69
2022-09-24T11:53:55.858Z,7.82
2022-09-24T11:56:46.895Z,7.81
2022-09-24T11:59:23.811Z,7.66
2022-09-24T12:01:57.133Z,7.73
2022-09-24T12:04:27.351Z,7.91
2022-09-24T12:07:04.222Z,7.87
2022-09-24T12:09:41.053Z,7.87
2022-09-24T12:12:15.522Z,8.02
2022-09-24T12:14:49.899Z,7.90
2022-09-24T12:17:42.057Z,7.93
2022-09-24T12:20:21.008Z,7.87
2022-09-24T12:22:56.024Z,7.99
2022-09-24T12:25:23.059Z,7.94
2022-09-24T12:27:50.515Z,8.03
2022-09-24T12:31:12.437Z,8.04
2022-09-24T12:34:29.361Z,7.99
2022-09-24T12:37:11.816Z,8.03
2022-09-24T12:40:10.330Z,8.03
2022-09-24T12:42:43.811Z,7.91
2022-09-24T12:45:22.873Z,8.09
2022-09-24T12:47:55.532Z,8.05
2022-09-24T12:50:27.810Z,8.15
2022-09-24T12:52:59.200Z,7.71
2022-09-24T12:55:43.379Z,8.14
2022-09-24T12:58:39.252Z,8.00
2022-09-24T13:01:25.077Z,8.09
2022-09-24T13:04:15.228Z,8.06
2022-09-24T13:06:47.984Z,7.99
2022-09-24T13:09:37.792Z,8.11
2022-09-24T13:12:16.897Z,8.13
2022-09-24T13:14:52.198Z,8.02
2022-09-24T13:17:19.515Z,7.87
2022-09-24T13:19:49.774Z,7.92
2022-09-24T13:22:22.191Z,7.91
2022-09-24T13:25:05.770Z,8.03
2022-09-24T13:27:32.729Z,8.05
2022-09-24T13:30:36.385Z,8.00
2022-09-24T13:33:12.698Z,8.05
2022-09-24T13:36:03.426Z,7.88
2022-09-24T13:38:49.965Z,7.97
2022-09-24T13:41:30.460Z,7.75
2022-09-24T13:44:04.357Z,7.99
2022-09-24T13:46:32.379Z,7.96
2022-09-24T13:49:10.506Z,7.78
2022-09-24T13:51:41.457Z,7.93
2022-09-24T13:54:26.468Z,7.89
2022-09-24T13:57:23.108Z,7.82
2022-09-24T13:59:50.331Z,7.77
2022-09-24T14:02:38.785Z,7.80
2022-09-24T14:05:16.605Z,7.87
2022-09-24T14:07:56.705Z,7.79
2022-09-24T14:10:25.386Z,7.72
2022-09-24T14:13:21.816Z,7.81
2022-09-24T14:16:10.334Z,7.85
2022-09-24T14:18:37.493Z,7.58
2022-09-24T14:21:10.986Z,7.83
2022-09-24T14:23:46.006Z,7.76
2022-09-24T14:26:32.208Z,7.65
2022-09-24T14:29:04.487Z,7.76
2022-09-24T14:31:32.611Z,7.53
2022-09-24T14:34:05.537Z,7.71
2022-09-24T14:36:35.898Z,7.67
2022-09-24T14:39:06.170Z,7.72
2022-09-24T14:41:35.449Z,7.55
2022-09-24T14:44:07.960Z,7.58
2022-09-24T14:46:41.072Z,7.47
2022-09-24T14:49:19.688Z,7.67
2022-09-24T14:52:04.304Z,7.56
2022-09-24T14:54:36.840Z,7.76
2022-09-24T14:57:25.273Z,7.50
2022-09-24T14:59:52.630Z,7.60
2022-09-24T15:02:29.108Z,7.75
2022-09-24T15:05:05.490Z,7.54
2022-09-24T15:07:35.140Z,7.71
2022-09-24T15:10:05.382Z,7.79
2022-09-24T15:12:36.052Z,7.78
2022-09-24T15:15:28.826Z,7.66
2022-09-24T15:17:55.849Z,7.62
2022-09-24T15:20:22.888Z,7.74
2022-09-24T15:22:51.183Z,7.73
2022-09-24T15:25:18.904Z,7.76
2022-09-24T15:27:46.331Z,7.57
2022-09-24T15:30:19.913Z,7.66
2022-09-24T15:32:48.220Z,7.58
2022-09-24T15:35:16.584Z,7.60
2022-09-24T15:37:44.855Z,7.74
2022-09-24T15:40:17.520Z,7.67
2022-09-24T15:42:44.676Z,7.80
2022-09-24T15:45:23.559Z,7.81
2022-09-24T15:47:52.261Z,7.77
2022-09-24T15:50:23.826Z,7.77
2022-09-24T15:52:55.293Z,7.76
2022-09-24T15:55:24.213Z,7.75
2022-09-24T15:57:51.495Z,7.64
2022-09-24T16:00:21.586Z,7.67
2022-09-24T16:02:50.975Z,7.71
2022-09-24T16:05:19.279Z,7.69
2022-09-24T16:07:47.678Z,7.71
2022-09-24T16:10:15.902Z,7.70
2022-09-24T16:12:43.616Z,7.65
2022-09-24T16:15:16.044Z,7.55
2022-09-24T16:17:43.902Z,7.54
2022-09-24T16:20:10.976Z,7.68
2022-09-24T16:22:38.296Z,7.68
2022-09-24T16:25:05.928Z,7.64
2022-09-24T16:27:34.030Z,7.63
2022-09-24T16:30:02.475Z,7.46
2022-09-24T16:32:32.271Z,7.73
2022-09-24T16:35:00.552Z,7.68
2022-09-24T16:37:28.270Z,7.73
2022-09-24T16:39:56.199Z,7.64
2022-09-24T16:42:26.417Z,7.73
2022-09-24T16:44:53.583Z,7.35
2022-09-24T16:47:22.043Z,7.73
2022-09-24T16:49:49.268Z,7.47
2022-09-24T16:52:16.395Z,7.72
2022-09-24T16:54:43.705Z,7.65
2022-09-24T16:57:10.921Z,7.63
2022-09-24T16:59:38.006Z,7.43
2022-09-24T17:02:05.108Z,7.47
2022-09-24T17:04:35.423Z,7.57
2022-09-24T17:07:02.576Z,7.66
2022-09-24T17:09:48.198Z,7.62
2022-09-24T17:12:15.653Z,7.62
2022-09-24T17:14:42.803Z,7.38
2022-09-24T17:17:09.801Z,7.51
2022-09-24T17:19:37.091Z,7.32
2022-09-24T17:22:04.312Z,7.53
2022-09-24T17:24:32.000Z,7.40
2022-09-24T17:26:59.578Z,7.51
2022-09-24T17:29:31.272Z,7.22
2022-09-24T17:31:59.658Z,7.16
2022-09-24T17:34:27.147Z,7.06
2022-09-24T17:36:54.421Z,7.22
2022-09-24T17:39:21.774Z,6.98
2022-09-24T17:41:48.867Z,7.13
2022-09-24T17:44:17.426Z,6.61
2022-09-24T17:46:44.878Z,7.16
2022-09-24T17:49:12.468Z,6.94
2022-09-24T17:51:39.712Z,6.91
2022-09-24T17:54:15.908Z,7.03
2022-09-24T17:56:43.266Z,6.96
2022-09-24T17:59:13.340Z,7.01
2022-09-24T18:01:43.220Z,7.01
2022-09-24T18:04:16.746Z,6.75
2022-09-24T18:06:46.051Z,6.99
2022-09-24T18:09:17.679Z,6.98
2022-09-24T18:11:47.729Z,6.87
2022-09-24T18:14:17.643Z,7.00
2022-09-24T18:16:47.499Z,6.98
2022-09-24T18:19:17.586Z,6.97
2022-09-24T18:21:50.824Z,6.83
2022-09-24T18:24:18.584Z,6.95
2022-09-24T18:26:49.526Z,6.74
2022-09-24T18:29:19.459Z,6.67
2022-09-24T18:31:47.604Z,6.92
2022-09-24T18:34:15.999Z,6.89
2022-09-24T18:36:44.532Z,6.77
2022-09-24T18:39:21.824Z,6.92
2022-09-24T18:41:53.143Z,6.93
2022-09-24T18:44:20.429Z,6.93
2022-09-24T18:46:47.682Z,6.71
2022-09-24T18:49:15.271Z,6.94
2022-09-24T18:51:42.527Z,6.95
2022-09-24T18:54:15.286Z,6.85
2022-09-24T18:56:43.698Z,7.03
2022-09-24T18:59:17.023Z,7.07
2022-09-24T19:01:46.026Z,7.05
2022-09-24T19:04:14.613Z,6.95
2022-09-24T19:06:44.498Z,6.91
2022-09-24T19:09:14.372Z,6.84
2022-09-24T19:11:42.056Z,6.99
2022-09-24T19:14:13.866Z,6.72
2022-09-24T19:16:41.513Z,6.61
2022-09-24T19:19:09.645Z,6.94
2022-09-24T19:21:38.204Z,6.92
2022-09-24T19:24:06.819Z,6.72
2022-09-24T19:26:39.820Z,6.86
2022-09-24T19:29:06.958Z,6.88
2022-09-24T19:31:37.393Z,6.94
2022-09-24T19:34:06.908Z,6.88
2022-09-24T19:36:44.250Z,6.84
2022-09-24T19:39:14.442Z,6.91
2022-09-24T19:41:42.883Z,6.88
2022-09-24T19:44:11.205Z,6.92
2022-09-24T19:46:39.164Z,6.79
2022-09-24T19:49:06.533Z,6.56
2022-09-24T19:51:35.561Z,6.81
2022-09-24T19:54:06.803Z,6.66
2022-09-24T19:56:34.871Z,6.68
2022-09-24T19:59:02.508Z,6.56
2022-09-24T20:01:32.162Z,6.78
2022-09-24T20:04:02.483Z,6.76
2022-09-24T20:06:31.743Z,6.75
2022-09-24T20:08:59.502Z,6.58
2022-09-24T20:11:26.988Z,6.53
2022-09-24T20:13:56.397Z,6.70
2022-09-24T20:16:26.684Z,6.58
2022-09-24T20:18:58.369Z,6.64
2022-09-24T20:21:32.183Z,6.38
2022-09-24T20:24:01.409Z,6.53
2022-09-24T20:26:48.003Z,6.45
2022-09-24T20:29:15.615Z,6.62
2022-09-24T20:31:52.111Z,6.50
2022-09-24T20:34:25.217Z,6.35
2022-09-24T20:36:52.288Z,6.51
2022-09-24T20:39:19.734Z,6.51
2022-09-24T20:41:47.873Z,6.56
2022-09-24T20:44:14.956Z,6.56
2022-09-24T20:46:41.948Z,6.36
2022-09-24T20:49:17.034Z,6.50
2022-09-24T20:51:44.046Z,6.48
2022-09-24T20:54:12.149Z,6.34
2022-09-24T20:56:39.225Z,6.42
2022-09-24T20:59:07.690Z,6.37
2022-09-24T21:01:35.186Z,6.20
2022-09-24T21:04:04.779Z,6.25
2022-09-24T21:06:32.746Z,6.27
2022-09-24T21:09:00.534Z,6.12
2022-09-24T21:11:27.671Z,6.18
2022-09-24T21:13:57.277Z,6.26
2022-09-24T21:16:27.150Z,6.23
2022-09-24T21:18:54.497Z,6.24
2022-09-24T21:21:33.094Z,6.08
2022-09-24T21:24:01.317Z,6.24
2022-09-24T21:26:33.289Z,6.24
2022-09-24T21:29:12.306Z,6.24
2022-09-24T21:31:42.171Z,6.25
2022-09-24T21:34:09.372Z,6.15
2022-09-24T21:36:45.739Z,6.09
2022-09-24T21:39:23.138Z,6.24
2022-09-24T21:41:51.515Z,6.22
2022-09-24T21:44:19.404Z,6.23
2022-09-24T21:46:48.102Z,6.22
2022-09-24T21:49:17.281Z,5.92
2022-09-24T21:51:45.833Z,6.16
2022-09-24T21:54:17.504Z,6.18
2022-09-24T21:56:46.123Z,6.08
2022-09-24T21:59:32.087Z,6.16
2022-09-24T22:01:59.521Z,6.15
2022-09-24T22:04:27.793Z,6.14
2022-09-24T22:06:54.840Z,6.12
2022-09-24T22:09:24.965Z,6.01
2022-09-24T22:11:52.689Z,5.86
2022-09-24T22:14:20.031Z,5.99
2022-09-24T22:16:47.311Z,6.04
2022-09-24T22:19:14.920Z,5.87
2022-09-24T22:21:41.898Z,5.93
2022-09-24T22:24:09.119Z,6.00
2022-09-24T22:26:36.894Z,5.96
2022-09-24T22:29:04.927Z,6.04
2022-09-24T22:31:33.318Z,5.81
2022-09-24T22:34:19.217Z,6.06
2022-09-24T22:36:48.124Z,5.98
2022-09-24T22:39:15.660Z,5.92
2022-09-24T22:41:43.392Z,5.96
2022-09-24T22:44:11.546Z,5.88
2022-09-24T22:46:40.431Z,5.98
2022-09-24T22:49:08.225Z,5.79
2022-09-24T22:51:35.852Z,5.79
2022-09-24T22:54:03.318Z,5.65
2022-09-24T22:56:30.814Z,5.91
2022-09-24T22:59:00.090Z,5.82
2022-09-24T23:01:31.475Z,5.91
2022-09-24T23:03:59.800Z,5.64
2022-09-24T23:06:27.690Z,5.82
2022-09-24T23:08:55.836Z,5.96
2022-09-24T23:11:29.464Z,5.95
2022-09-24T23:14:12.237Z,5.90
2022-09-24T23:16:39.785Z,5.89
2022-09-24T23:19:12.242Z,5.90
2022-09-24T23:21:39.744Z,5.90
2022-09-24T23:24:22.154Z,5.90
2022-09-24T23:26:51.246Z,5.86
2022-09-24T23:29:18.234Z,5.84
2022-09-24T23:31:45.584Z,5.60
2022-09-24T23:34:14.412Z,5.86
2022-09-24T23:36:42.045Z,5.63
2022-09-24T23:39:09.108Z,5.71
2022-09-24T23:41:36.575Z,5.45
2022-09-24T23:44:04.499Z,5.70
2022-09-24T23:46:34.133Z,5.74
2022-09-24T23:49:01.955Z,5.60
2022-09-24T23:51:29.171Z,5.62
2022-09-24T23:53:56.200Z,5.58
2022-09-24T23:56:23.476Z,5.69
2022-09-24T23:58:51.025Z,5.71
